Aérodrome :
LOGIN :

S'inscrire | Disclaimer

   EN    FR    IT 

 










Légende :    VFR   VFR Marginal   IFR   IFR Intensif   IFR Très Intensif
Visi : 
Plafond : 
>= 8 km
>= 3000ft
5 à 8 km
1000 à 3000 ft
1500m à 5 km
500 à 1000 ft
800 à 1500m
200 à 500 ft
< 800m
< 200 ft
Symboles :   Orages  Brouillard  Fortes neiges  Fortes précipitations  Vent > 20 kt
SIGMETs :   Divers  Orages  Givrage  Turbulence  Onde Orograph.  Cendres Volcan.






- Altitude de l'aérodrome : 390 ft
- Code IATA : TMP


EFTP - Tampere-Pirkkala

DERNIER METAR :
  • 011320Z AUTO 07009KT CAVOK 16/10 Q1020

METARs EXPIRÉS :
  • 011250Z AUTO 07007KT 030V100 CAVOK 16/10 Q1020
  • 011220Z 08007KT 050V110 9999 FEW025 16/10 Q1020
  • 011150Z 08007KT 050V110 9999 FEW022 16/10 Q1020
  • 011120Z 07010KT 040V100 9999 FEW020 15/10 Q1020
  • 011050Z 07007KT 050V110 9999 FEW017 15/11 Q1020

TAF TAF EFTP
Valide du 01 à 12h jusqu'au 02 à 12h UTC


011136Z 0112/0212 07007KT 9999 FEW020
PROB30 0120/0124 1200 BCFG
BECMG 0200/0202 BKN005
PROB30 0202/0206 2500 BR BKN003
BECMG 0206/0208 FEW020



MET'MAP, la Météo Aéronautique d'un coup d'oeil ! - Copyright ORBIFLY Décembre 2007 - Disclaimer

ORBIFLY MET'MAP TEAM :

Programmation & Développement : Alexandra Zaïnal
Sur une idée originale de : Baudouin d'Aumeries
Assistance à la programmation : Marc-Olivier Méhu
Soutien technique & logistique : Manuel Goepfert

Contact : metmap@orbifly.com




SOURCES & CREDITS :

   NOAA